Time;durP1;ratioP1;P1;durP2;ratioP2;P2;SDS_P1;SDS_P2;PMS_P1;PMS_P2;Temp;Humidity;BMP_temperature;BMP_pressure;BME280_temperature;BME280_humidity;BME280_pressure;Samples;Min_cycle;Max_cycle;Signal;HPM_P1;HPM_P2
2021/12/13 01:10:08;;;;;;;22.38;3.25;;;9.60;99.90;;;;;;6217138;23;20071;-93
2021/12/13 01:18:55;;;;;;;;;;;9.60;99.90;;;;;;6054383;23;20030;-93
2021/12/13 01:30:30;;;;;;;23.55;2.55;;;9.60;99.90;;;;;;5900430;24;20104;-93
2021/12/13 01:34:12;;;;;;;19.17;2.05;;;9.60;99.90;;;;;;5889133;24;20146;-94
2021/12/13 01:38:02;;;;;;;25.45;3.05;;;9.60;99.90;;;;;;6084024;23;20033;-95
2021/12/13 01:41:49;;;;;;;;;;;;;;;;;;;;;
2021/12/13 02:48:01;;;;;;;18.08;1.75;;;9.40;99.90;;;;;;6217763;23;20055;-94
2021/12/13 02:51:05;;;;;;;20.98;2.70;;;9.40;99.90;;;;;;6187577;23;20096;-94
2021/12/13 02:54:27;;;;;;;12.68;1.67;;;9.40;99.90;;;;;;6170722;23;20016;-93
2021/12/13 02:57:51;;;;;;;12.75;2.55;;;9.40;99.90;;;;;;6172566;23;20370;-93
2021/12/13 03:01:01;;;;;;;27.48;2.88;;;9.40;99.90;;;;;;6180776;23;20027;-93
2021/12/13 03:04:18;;;;;;;9.57;1.95;;;9.40;99.90;;;;;;6171166;23;20017;-93
2021/12/13 03:07:51;;;;;;;12.85;2.30;;;9.40;99.90;;;;;;6197949;23;20056;-94
2021/12/13 03:17:39;;;;;;;13.95;2.13;;;9.40;99.90;;;;;;6247493;22;20046;-93
2021/12/13 03:21:13;;;;;;;15.30;1.67;;;9.40;99.90;;;;;;6198698;23;20362;-93
2021/12/13 03:24:46;;;;;;;;;;;;;;;;;;;;;
2021/12/13 03:28:39;;;;;;;16.38;1.95;;;9.40;99.90;;;;;;6190379;23;20024;-93
2021/12/13 03:32:33;;;;;;;18.05;2.83;;;9.40;99.90;;;;;;6172161;23;20024;-93
2021/12/13 03:40:10;;;;;;;15.20;3.03;;;9.40;99.90;;;;;;6190561;23;20464;-94
2021/12/13 03:43:40;;;;;;;17.55;2.80;;;9.40;99.90;;;;;;6174070;23;20025;-95
2021/12/13 03:47:09;;;;;;;23.67;2.80;;;9.30;99.90;;;;;;6199528;23;20031;-93
2021/12/13 03:50:14;;;;;;;18.85;2.10;;;9.40;99.90;;;;;;6170375;23;20048;-93
2021/12/13 03:53:09;;;;;;;19.90;3.80;;;9.40;99.90;;;;;;6168612;23;20400;-94
2021/12/13 03:56:08;;;;;;;20.48;3.95;;;9.30;99.90;;;;;;6080371;23;20018;-94
2021/12/13 03:59:06;;;;;;;15.07;3.83;;;9.40;99.90;;;;;;6074773;23;20030;-93
2021/12/13 04:02:21;;;;;;;13.30;2.10;;;9.40;99.90;;;;;;6078712;23;20109;-93
2021/12/13 04:05:42;;;;;;;15.20;2.40;;;9.30;99.90;;;;;;6080439;23;20018;-94
2021/12/13 04:08:31;;;;;;;21.60;3.47;;;9.30;99.90;;;;;;6079181;23;20493;-94
2021/12/13 04:11:22;;;;;;;17.40;3.83;;;9.30;99.90;;;;;;6078390;23;20030;-93
2021/12/13 04:14:15;;;;;;;23.25;3.28;;;9.30;99.90;;;;;;6077590;23;20018;-93
2021/12/13 04:17:22;;;;;;;18.17;2.92;;;9.30;99.90;;;;;;6077752;23;20545;-92
2021/12/13 04:20:36;;;;;;;12.52;2.90;;;9.30;99.90;;;;;;6099940;23;20505;-93
2021/12/13 04:23:40;;;;;;;19.55;3.13;;;9.30;99.90;;;;;;6086524;23;20021;-93
2021/12/13 04:26:26;;;;;;;22.25;3.55;;;9.30;99.90;;;;;;6166808;23;20025;-94
2021/12/13 04:29:27;;;;;;;15.50;2.42;;;9.30;99.90;;;;;;6167447;23;20344;-93
2021/12/13 04:32:48;;;;;;;19.60;2.60;;;9.30;99.90;;;;;;6170613;23;20008;-94
2021/12/13 04:35:44;;;;;;;11.95;2.42;;;9.30;99.90;;;;;;6195517;23;20024;-93
2021/12/13 04:39:12;;;;;;;15.82;3.50;;;9.30;99.90;;;;;;6164949;23;20017;-94
2021/12/13 04:42:20;;;;;;;16.42;2.75;;;9.30;99.90;;;;;;6166608;23;20028;-93
2021/12/13 04:45:09;;;;;;;14.32;3.53;;;9.30;99.90;;;;;;6166185;23;20071;-94
2021/12/13 04:48:13;;;;;;;15.05;2.53;;;9.30;99.90;;;;;;6171257;23;20021;-94
2021/12/13 04:51:25;;;;;;;13.93;2.63;;;9.30;99.90;;;;;;6156098;23;20013;-93
2021/12/13 04:54:27;;;;;;;16.15;2.80;;;9.30;99.90;;;;;;6169383;23;20090;-94
2021/12/13 04:57:19;;;;;;;13.60;3.03;;;9.30;99.90;;;;;;6167791;23;20210;-93
2021/12/13 05:00:26;;;;;;;11.00;2.90;;;9.30;99.90;;;;;;6196698;23;20032;-93
2021/12/13 05:03:49;;;;;;;16.70;2.75;;;9.30;99.90;;;;;;6165344;23;20028;-93
2021/12/13 05:10:55;;;;;;;13.57;2.97;;;9.30;99.90;;;;;;6129010;23;20063;-93
2021/12/13 05:14:24;;;;;;;27.17;3.45;;;9.30;99.90;;;;;;6143387;23;20024;-93
2021/12/13 14:53:59;;;;;;;19.70;7.25;;;9.80;99.90;;;;;;6221636;22;20984;-89
2021/12/13 14:56:47;;;;;;;23.45;6.20;;;9.80;99.90;;;;;;6222680;23;20016;-89
2021/12/13 14:59:15;;;;;;;12.38;4.57;;;9.80;99.90;;;;;;6195761;23;20547;-92
2021/12/13 15:01:43;;;;;;;16.60;4.95;;;9.80;99.90;;;;;;6197543;23;20044;-90
2021/12/13 15:04:21;;;;;;;17.00;5.63;;;9.80;99.90;;;;;;6191096;23;20016;-94
2021/12/13 15:07:04;;;;;;;12.07;5.40;;;9.80;99.90;;;;;;6221831;23;20021;-93
2021/12/13 15:09:51;;;;;;;15.18;6.10;;;9.80;99.90;;;;;;6168314;23;20117;-95
2021/12/13 15:12:27;;;;;;;17.45;6.13;;;9.80;99.90;;;;;;6166460;23;20024;-92
2021/12/13 15:18:52;;;;;;;;;;;9.70;99.90;;;;;;6192111;23;20334;-92
2021/12/13 15:21:59;;;;;;;15.57;5.47;;;9.70;99.90;;;;;;6217617;23;19916;-93
2021/12/13 15:25:00;;;;;;;15.65;5.82;;;9.70;99.90;;;;;;6190979;23;20024;-94
2021/12/13 15:41:22;;;;;;;;;;;;;;;;;;;;;
2021/12/13 15:45:32;;;;;;;14.48;6.10;;;9.60;99.90;;;;;;6068244;23;20085;-94
2021/12/13 16:00:08;;;;;;;17.70;6.43;;;9.50;99.90;;;;;;6220310;23;20024;-92
2021/12/13 16:03:44;;;;;;;20.65;7.50;;;9.50;99.90;;;;;;6189886;23;20005;-91
2021/12/13 16:07:09;;;;;;;12.48;6.72;;;9.50;99.90;;;;;;6124813;23;20052;-92
2021/12/13 16:10:17;;;;;;;15.18;7.97;;;9.50;99.90;;;;;;6198350;23;20054;-92
2021/12/13 16:12:50;;;;;;;19.75;8.30;;;9.40;99.90;;;;;;6191312;23;20025;-93
2021/12/13 16:15:31;;;;;;;20.42;8.20;;;9.40;99.90;;;;;;6191931;23;20040;-93
2021/12/13 16:18:10;;;;;;;16.48;7.43;;;9.40;99.90;;;;;;6187923;23;20024;-91
2021/12/13 16:20:40;;;;;;;16.30;6.63;;;9.40;99.90;;;;;;6189722;23;20033;-91
2021/12/13 16:23:12;;;;;;;21.33;7.55;;;9.40;99.90;;;;;;6190331;23;20035;-90
2021/12/13 16:25:47;;;;;;;14.40;6.68;;;9.40;99.90;;;;;;6165195;23;20031;-91
2021/12/13 16:28:26;;;;;;;15.07;6.60;;;9.40;99.90;;;;;;6165644;23;20449;-91
2021/12/13 16:31:17;;;;;;;26.95;8.35;;;9.40;99.90;;;;;;6165498;23;20353;-91
2021/12/13 16:33:49;;;;;;;16.23;6.10;;;9.40;99.90;;;;;;6166241;23;20400;-91
2021/12/13 16:36:46;;;;;;;15.27;7.97;;;9.40;99.90;;;;;;6191579;23;20048;-90
2021/12/13 16:39:27;;;;;;;10.90;5.72;;;9.40;99.90;;;;;;6166464;23;20016;-90
2021/12/13 16:41:58;;;;;;;17.05;6.15;;;9.40;99.90;;;;;;6165621;23;20020;-90
2021/12/13 16:44:29;;;;;;;16.85;8.52;;;9.40;99.90;;;;;;6165429;23;20027;-91
2021/12/13 16:47:01;;;;;;;17.33;7.75;;;9.40;99.90;;;;;;6190181;23;20085;-90
2021/12/13 16:49:30;;;;;;;20.83;7.85;;;9.40;99.90;;;;;;6191091;23;20024;-91
2021/12/13 16:52:08;;;;;;;25.67;9.70;;;9.40;99.90;;;;;;6165594;23;20020;-91
2021/12/13 16:54:40;;;;;;;20.23;8.52;;;9.40;99.90;;;;;;6217627;23;20091;-92
2021/12/13 16:57:46;;;;;;;17.10;8.05;;;9.40;99.90;;;;;;6169630;23;20016;-92
2021/12/13 17:01:25;;;;;;;11.98;6.70;;;9.40;99.90;;;;;;6194875;23;20017;-91
2021/12/13 17:03:52;;;;;;;19.60;7.57;;;9.40;99.90;;;;;;6217724;23;20025;-92
2021/12/13 17:06:40;;;;;;;16.48;7.13;;;9.40;99.90;;;;;;6168771;23;20035;-91
2021/12/13 17:09:12;;;;;;;17.10;8.27;;;9.40;99.90;;;;;;6167263;23;20356;-92
2021/12/13 17:12:20;;;;;;;15.95;7.25;;;9.30;99.90;;;;;;6173904;23;20020;-92
2021/12/13 17:15:06;;;;;;;23.25;9.25;;;9.30;99.90;;;;;;6191308;23;20024;-92
2021/12/13 17:17:41;;;;;;;21.38;7.55;;;9.30;99.90;;;;;;6190608;23;20016;-92
2021/12/13 17:20:33;;;;;;;18.15;7.97;;;9.30;99.90;;;;;;6191632;23;20099;-93
2021/12/13 17:23:32;;;;;;;23.13;8.82;;;9.30;99.90;;;;;;6192301;23;20013;-90
2021/12/13 17:26:45;;;;;;;25.90;10.45;;;9.30;99.90;;;;;;6191438;23;20107;-92
2021/12/13 17:29:33;;;;;;;21.25;8.40;;;9.30;99.90;;;;;;6191953;23;20021;-91
2021/12/13 17:32:24;;;;;;;19.52;8.50;;;9.30;99.90;;;;;;6167156;23;20016;-91
2021/12/13 17:35:24;;;;;;;22.08;8.13;;;9.30;99.90;;;;;;6190853;23;20027;-93
2021/12/13 17:38:01;;;;;;;22.05;9.18;;;9.30;99.90;;;;;;6131397;23;20348;-92
2021/12/13 17:40:47;;;;;;;18.88;8.93;;;9.30;99.90;;;;;;6167544;23;20446;-90
2021/12/13 17:43:30;;;;;;;20.88;9.15;;;9.30;99.90;;;;;;6192775;23;20340;-91
2021/12/13 17:46:09;;;;;;;21.13;9.70;;;9.30;99.90;;;;;;6191523;23;20020;-91
2021/12/13 17:48:49;;;;;;;20.50;8.52;;;9.30;99.90;;;;;;6191595;23;20024;-91
2021/12/13 17:51:37;;;;;;;26.67;9.80;;;9.30;99.90;;;;;;6194140;23;20369;-90
2021/12/13 17:54:12;;;;;;;17.35;8.63;;;9.30;99.90;;;;;;6190974;23;20017;-92
2021/12/13 17:56:43;;;;;;;22.63;9.32;;;9.30;99.90;;;;;;6191262;23;20361;-92
2021/12/13 17:59:34;;;;;;;23.25;9.60;;;9.30;99.90;;;;;;6192550;23;20025;-90
2021/12/13 18:02:13;;;;;;;20.27;9.25;;;9.30;99.90;;;;;;6167109;23;20058;-92
2021/12/13 18:04:53;;;;;;;27.13;10.00;;;9.30;99.90;;;;;;6191441;23;20008;-92
2021/12/13 18:07:36;;;;;;;20.35;9.35;;;9.30;99.90;;;;;;6165622;23;20035;-93
2021/12/13 18:10:11;;;;;;;21.58;10.95;;;9.30;99.90;;;;;;6166342;23;20108;-92
2021/12/13 18:12:44;;;;;;;22.70;9.15;;;9.30;99.90;;;;;;6166739;23;20031;-90
2021/12/13 18:15:28;;;;;;;27.55;9.32;;;9.30;99.90;;;;;;6191451;23;20024;-90
2021/12/13 18:18:11;;;;;;;24.50;10.27;;;9.30;99.90;;;;;;6190441;23;20384;-90
2021/12/13 18:21:06;;;;;;;28.73;10.60;;;9.20;99.90;;;;;;6165955;23;20020;-91
2021/12/13 18:23:59;;;;;;;30.07;11.00;;;9.30;99.90;;;;;;6194783;23;20027;-91
2021/12/13 18:26:33;;;;;;;21.50;10.77;;;9.20;99.90;;;;;;6216369;23;20425;-91
2021/12/13 18:29:10;;;;;;;24.63;9.65;;;9.20;99.90;;;;;;6191332;23;20388;-92
2021/12/13 18:31:49;;;;;;;29.92;11.00;;;9.20;99.90;;;;;;6167218;23;20027;-93
2021/12/13 18:34:32;;;;;;;23.35;10.35;;;9.20;99.90;;;;;;6190641;23;20020;-91
2021/12/13 18:37:09;;;;;;;22.60;11.00;;;9.20;99.90;;;;;;6192215;23;20095;-91
2021/12/13 18:39:39;;;;;;;21.67;9.40;;;9.20;99.90;;;;;;6217457;23;20011;-91
2021/12/13 18:42:36;;;;;;;26.23;11.18;;;9.20;99.90;;;;;;6167075;23;20032;-92
2021/12/13 18:45:13;;;;;;;24.13;10.80;;;9.20;99.90;;;;;;6166386;23;20017;-92
2021/12/13 18:48:05;;;;;;;21.75;10.02;;;9.20;99.90;;;;;;6192479;23;20020;-90
2021/12/13 18:50:50;;;;;;;22.20;9.88;;;9.20;99.90;;;;;;6193007;23;20021;-90
2021/12/13 18:53:35;;;;;;;25.88;11.63;;;9.20;99.90;;;;;;6166421;23;20024;-92
2021/12/13 18:56:17;;;;;;;27.50;11.85;;;9.20;99.90;;;;;;6190281;23;20071;-92
2021/12/13 18:58:55;;;;;;;29.20;11.80;;;9.20;99.90;;;;;;6165998;23;20095;-91
2021/12/13 19:01:40;;;;;;;21.60;10.70;;;9.20;99.90;;;;;;6190242;23;20372;-91
2021/12/13 19:08:11;;;;;;;33.22;10.48;;;9.20;99.90;;;;;;6188010;23;20027;-93
2021/12/13 19:11:04;;;;;;;25.20;11.25;;;9.20;99.90;;;;;;6191014;23;20048;-91
2021/12/13 19:14:08;;;;;;;26.27;9.80;;;9.20;99.90;;;;;;6193913;23;20013;-93
2021/12/13 19:16:50;;;;;;;16.83;9.20;;;9.20;99.90;;;;;;6167216;23;20095;-91
2021/12/13 19:19:31;;;;;;;25.15;10.32;;;9.20;99.90;;;;;;6190753;23;20012;-92
2021/12/13 19:22:30;;;;;;;26.23;9.93;;;9.20;99.90;;;;;;6190417;23;20020;-93
2021/12/13 19:25:46;;;;;;;27.13;10.02;;;9.20;99.90;;;;;;6166628;23;20048;-89
2021/12/13 19:28:47;;;;;;;23.70;10.75;;;9.20;99.90;;;;;;6104858;23;20022;-91
2021/12/13 19:31:25;;;;;;;17.77;10.05;;;9.20;99.90;;;;;;6145405;23;20042;-90
2021/12/13 19:34:27;;;;;;;37.90;12.27;;;9.20;99.90;;;;;;6191424;23;20445;-90
2021/12/13 19:37:44;;;;;;;27.70;9.77;;;9.20;99.90;;;;;;6193285;23;20020;-91
2021/12/13 19:41:10;;;;;;;21.98;10.25;;;9.10;99.90;;;;;;6189091;23;20100;-93
2021/12/13 19:44:32;;;;;;;23.50;10.98;;;9.10;99.90;;;;;;6166609;23;20012;-92
2021/12/13 19:47:24;;;;;;;23.73;10.45;;;9.10;99.90;;;;;;6154555;23;20016;-92
2021/12/13 19:50:28;;;;;;;20.27;9.13;;;9.10;99.90;;;;;;6215125;23;20021;-91
2021/12/13 19:53:15;;;;;;;22.55;10.27;;;9.10;99.90;;;;;;6166295;23;20128;-94
2021/12/13 19:56:00;;;;;;;28.13;10.88;;;9.10;99.90;;;;;;6186571;23;20013;-91
2021/12/13 19:58:38;;;;;;;30.15;11.02;;;9.10;99.90;;;;;;6134859;23;20359;-90
2021/12/13 20:01:10;;;;;;;26.17;10.05;;;9.10;99.90;;;;;;6134676;23;20396;-91
2021/12/13 20:03:53;;;;;;;26.50;11.98;;;9.10;99.90;;;;;;6134810;23;20048;-87
2021/12/13 20:06:41;;;;;;;23.90;10.82;;;9.10;99.90;;;;;;6134962;23;20446;-89
2021/12/13 20:09:12;;;;;;;24.23;11.55;;;9.10;99.90;;;;;;6160023;23;20017;-89
2021/12/13 20:11:54;;;;;;;30.33;11.25;;;9.10;99.90;;;;;;6159727;23;20025;-92
2021/12/13 20:14:31;;;;;;;28.63;11.32;;;9.10;99.90;;;;;;6136160;23;20036;-93
2021/12/13 20:17:30;;;;;;;29.55;10.90;;;9.10;99.90;;;;;;6136393;23;20039;-91
2021/12/13 20:20:20;;;;;;;26.55;10.07;;;9.10;99.90;;;;;;6160670;23;20013;-92
2021/12/13 20:23:00;;;;;;;20.80;10.40;;;9.10;99.90;;;;;;6186452;23;20449;-93
2021/12/13 20:30:14;;;;;;;27.88;9.48;;;9.10;99.90;;;;;;6180496;23;20025;-91
2021/12/13 20:33:16;;;;;;;30.88;12.07;;;9.10;99.90;;;;;;6162865;23;20020;-92
2021/12/13 20:36:22;;;;;;;25.77;10.80;;;9.10;99.90;;;;;;6164754;23;20021;-91
2021/12/13 20:38:57;;;;;;;21.95;9.82;;;9.10;99.90;;;;;;6162945;23;20084;-94
2021/12/13 20:41:37;;;;;;;20.42;9.98;;;9.10;99.90;;;;;;6139666;23;20020;-93
2021/12/13 20:44:22;;;;;;;29.27;12.00;;;9.10;99.90;;;;;;6138884;23;20523;-91
2021/12/13 20:47:12;;;;;;;21.98;10.20;;;9.10;99.90;;;;;;6164304;23;20021;-92
2021/12/13 20:49:48;;;;;;;27.60;10.27;;;9.10;99.90;;;;;;6163375;23;20016;-94
2021/12/13 20:52:24;;;;;;;31.10;10.60;;;9.10;99.90;;;;;;6139357;23;20048;-91
2021/12/13 20:55:16;;;;;;;27.73;10.35;;;9.10;99.90;;;;;;6155721;23;20334;-90
2021/12/13 20:57:54;;;;;;;26.85;10.45;;;9.10;99.90;;;;;;6193139;23;20389;-94
2021/12/13 21:00:55;;;;;;;21.70;9.75;;;9.10;99.90;;;;;;6193412;23;20102;-93
2021/12/13 21:04:09;;;;;;;21.20;9.30;;;9.10;99.90;;;;;;6219653;23;20441;-92
2021/12/13 21:08:03;;;;;;;20.48;8.98;;;9.10;99.90;;;;;;6198808;23;20150;-94
2021/12/13 21:14:02;;;;;;;26.55;9.68;;;9.10;99.90;;;;;;6248358;22;20406;-90
2021/12/13 21:17:02;;;;;;;22.80;9.30;;;9.00;99.90;;;;;;6199215;23;20402;-90
2021/12/13 21:19:39;;;;;;;22.77;9.80;;;9.00;99.90;;;;;;6197956;23;20407;-92
2021/12/13 21:22:30;;;;;;;24.10;9.13;;;9.10;99.90;;;;;;6195343;23;20059;-93
2021/12/13 21:25:40;;;;;;;23.83;8.82;;;9.00;99.90;;;;;;6192851;23;20025;-90
2021/12/13 21:28:37;;;;;;;23.48;9.05;;;9.00;99.90;;;;;;6219387;23;20091;-91
2021/12/13 21:31:32;;;;;;;26.58;10.57;;;9.00;99.90;;;;;;6169574;23;20020;-91
2021/12/13 21:34:51;;;;;;;19.45;7.88;;;9.00;99.90;;;;;;6219893;23;20035;-90
2021/12/13 21:40:27;;;;;;;23.95;8.38;;;9.00;99.90;;;;;;6192320;23;20025;-91
2021/12/13 21:43:04;;;;;;;20.38;8.88;;;9.00;99.90;;;;;;6169056;23;20404;-90
2021/12/13 21:45:54;;;;;;;25.75;10.32;;;9.00;99.90;;;;;;6166937;23;20107;-91
2021/12/13 21:48:40;;;;;;;21.13;7.78;;;9.10;99.90;;;;;;6167194;23;20042;-90
2021/12/13 21:51:52;;;;;;;26.88;8.48;;;9.00;99.90;;;;;;6192508;23;20013;-91
2021/12/13 21:54:57;;;;;;;22.73;8.10;;;9.00;99.90;;;;;;6167840;23;20021;-92
2021/12/13 21:58:38;;;;;;;25.58;8.35;;;9.00;99.90;;;;;;6104212;23;20027;-92
2021/12/13 22:01:26;;;;;;;23.17;7.68;;;9.00;99.90;;;;;;6168806;23;20394;-92
2021/12/13 22:04:29;;;;;;;16.33;6.55;;;9.00;99.90;;;;;;6167492;23;20020;-90
2021/12/13 22:07:41;;;;;;;;;;;;;;;;;;;;;
2021/12/13 22:10:42;;;;;;;16.10;8.27;;;9.00;99.90;;;;;;6190663;23;20025;-92
2021/12/13 22:13:27;;;;;;;19.20;8.15;;;9.00;99.90;;;;;;6167824;23;20023;-92
2021/12/13 22:15:59;;;;;;;17.60;7.78;;;9.00;99.90;;;;;;6217097;23;20016;-92
2021/12/13 22:18:58;;;;;;;22.05;7.82;;;9.00;99.90;;;;;;6166946;23;20511;-91
2021/12/13 22:21:29;;;;;;;14.55;6.78;;;9.00;99.90;;;;;;6181656;23;20024;-92
2021/12/13 22:24:10;;;;;;;14.95;7.38;;;9.00;99.90;;;;;;6191932;23;20021;-92
2021/12/13 22:26:41;;;;;;;20.40;7.25;;;9.00;99.90;;;;;;6166817;23;20075;-92
2021/12/13 22:29:10;;;;;;;31.25;7.93;;;9.00;99.90;;;;;;6191294;23;20020;-91
2021/12/13 22:31:42;;;;;;;20.58;8.15;;;9.10;99.90;;;;;;6167094;23;20024;-90
2021/12/13 22:34:23;;;;;;;21.48;7.30;;;9.00;99.90;;;;;;6166945;23;20024;-91
2021/12/13 22:36:51;;;;;;;16.05;5.90;;;9.00;99.90;;;;;;6166423;23;20031;-92
2021/12/13 22:39:20;;;;;;;15.70;6.40;;;9.00;99.90;;;;;;6191968;23;20019;-92
2021/12/13 22:41:54;;;;;;;20.23;7.80;;;9.00;99.90;;;;;;6191962;23;20013;-90
2021/12/13 22:44:27;;;;;;;18.67;7.32;;;9.00;99.90;;;;;;6166748;23;20013;-91
2021/12/13 22:47:00;;;;;;;19.88;7.10;;;9.00;99.90;;;;;;6167007;23;20115;-91
2021/12/13 22:49:40;;;;;;;17.63;7.95;;;9.00;99.90;;;;;;6167315;23;20055;-91
2021/12/13 22:52:11;;;;;;;23.50;8.85;;;9.00;99.90;;;;;;6165796;23;20035;-92
2021/12/13 22:54:40;;;;;;;21.88;8.55;;;9.00;99.90;;;;;;6166285;23;20020;-92
2021/12/13 22:57:08;;;;;;;19.13;7.75;;;9.00;99.90;;;;;;6166062;23;20025;-92
2021/12/13 22:59:38;;;;;;;23.58;9.32;;;9.00;99.90;;;;;;6190660;23;20024;-92
2021/12/13 23:02:19;;;;;;;24.85;8.98;;;9.00;99.90;;;;;;6191364;23;20021;-92
2021/12/13 23:05:01;;;;;;;24.90;9.35;;;9.00;99.90;;;;;;6190446;23;20044;-92
2021/12/13 23:07:30;;;;;;;18.88;8.02;;;9.00;99.90;;;;;;6190234;23;20023;-91
2021/12/13 23:10:21;;;;;;;24.33;8.75;;;9.00;99.90;;;;;;6166399;23;20130;-91
2021/12/13 23:16:23;;;;;;;17.10;8.10;;;9.00;99.90;;;;;;6191192;23;20078;-91
2021/12/13 23:18:54;;;;;;;28.07;9.33;;;9.00;99.90;;;;;;6177555;23;20020;-92
2021/12/13 23:21:24;;;;;;;23.75;9.82;;;9.00;99.90;;;;;;6190317;23;20254;-91
2021/12/13 23:23:52;;;;;;;20.00;9.07;;;9.00;99.90;;;;;;6166080;23;20071;-92
2021/12/13 23:26:19;;;;;;;21.50;8.90;;;9.00;99.90;;;;;;6190668;23;20024;-92
2021/12/13 23:28:52;;;;;;;24.90;10.93;;;9.00;99.90;;;;;;6190800;23;20096;-91
2021/12/13 23:31:23;;;;;;;23.50;9.13;;;9.00;99.90;;;;;;6190888;23;20031;-91
2021/12/13 23:33:51;;;;;;;25.83;9.57;;;9.00;99.90;;;;;;6165964;23;20285;-91
2021/12/13 23:36:30;;;;;;;28.75;9.95;;;9.00;99.90;;;;;;6191517;23;20024;-92
2021/12/13 23:47:33;;;;;;;21.02;8.57;;;9.00;99.90;;;;;;6217112;23;20017;-92
2021/12/13 23:50:14;;;;;;;24.15;8.98;;;9.00;99.90;;;;;;6217102;23;20023;-91
2021/12/13 23:52:45;;;;;;;22.08;7.93;;;9.00;99.90;;;;;;6165640;23;20059;-92
2021/12/13 23:55:37;;;;;;;21.85;9.48;;;9.00;99.90;;;;;;6165674;23;20074;-90
2021/12/13 23:58:09;;;;;;;23.20;8.85;;;9.00;99.90;;;;;;6190759;23;20337;-92
